Time;durP1;ratioP1;P1;durP2;ratioP2;P2;SDS_P1;SDS_P2;PMS_P1;PMS_P2;Temp;Humidity;BMP_temperature;BMP_pressure;BME280_temperature;BME280_humidity;BME280_pressure;Samples;Min_cycle;Max_cycle;Signal;HPM_P1;HPM_P2
2022/03/03 00:00:20;;;;;;;22.98;8.45;;;8.80;73.50;;;;;;5060832;28;20024;-65
2022/03/03 00:02:46;;;;;;;16.77;7.53;;;8.80;73.30;;;;;;5058259;28;20114;-66
2022/03/03 00:05:13;;;;;;;17.35;7.47;;;8.80;73.30;;;;;;5059713;28;20490;-65
2022/03/03 00:07:40;;;;;;;14.65;7.05;;;8.80;73.40;;;;;;5061724;28;20512;-66
2022/03/03 00:10:07;;;;;;;18.48;7.32;;;8.80;73.50;;;;;;5058354;28;20041;-65
2022/03/03 00:12:34;;;;;;;19.80;6.90;;;8.80;73.30;;;;;;5077837;28;20020;-65
2022/03/03 00:15:00;;;;;;;15.00;6.88;;;8.80;73.60;;;;;;5058565;28;20025;-65
2022/03/03 00:17:25;;;;;;;18.65;7.63;;;8.80;73.70;;;;;;5063132;28;20027;-65
2022/03/03 00:19:51;;;;;;;16.33;7.28;;;8.80;73.30;;;;;;5059073;28;20027;-65
2022/03/03 00:22:19;;;;;;;15.93;7.28;;;8.80;73.40;;;;;;5063853;28;20575;-65
2022/03/03 00:24:45;;;;;;;12.18;6.70;;;8.80;73.70;;;;;;5064288;28;20062;-66
2022/03/03 00:27:11;;;;;;;15.93;7.40;;;8.80;73.80;;;;;;5058884;28;20079;-65
2022/03/03 00:29:37;;;;;;;18.50;7.35;;;8.80;73.90;;;;;;5058966;28;20025;-65
2022/03/03 00:32:03;;;;;;;11.73;6.30;;;8.70;73.90;;;;;;5059920;28;20359;-65
2022/03/03 00:34:28;;;;;;;18.65;6.90;;;8.70;73.90;;;;;;5059660;28;20350;-65
2022/03/03 00:36:54;;;;;;;16.63;6.43;;;8.80;73.70;;;;;;5068548;28;20098;-65
2022/03/03 00:39:20;;;;;;;21.15;6.47;;;8.70;73.80;;;;;;5062931;28;20029;-65
2022/03/03 00:44:29;;;;;;;13.48;5.95;;;8.80;73.80;;;;;;5082955;23;20052;-62
2022/03/03 00:46:55;;;;;;;14.50;6.90;;;8.80;73.70;;;;;;5059476;28;20058;-62
2022/03/03 00:49:20;;;;;;;15.32;7.25;;;8.80;73.70;;;;;;5059066;28;20073;-63
2022/03/03 00:51:46;;;;;;;14.82;7.20;;;8.70;73.80;;;;;;5056390;28;20032;-63
2022/03/03 00:54:11;;;;;;;15.52;6.07;;;8.80;73.80;;;;;;5059180;28;20025;-62
2022/03/03 00:56:37;;;;;;;18.10;6.85;;;8.80;73.80;;;;;;5058319;28;20033;-62
2022/03/03 00:59:05;;;;;;;19.45;6.88;;;8.70;73.80;;;;;;5062672;28;20036;-62
2022/03/03 01:01:30;;;;;;;16.60;7.47;;;8.70;74.00;;;;;;5041096;28;20560;-62
2022/03/03 01:03:56;;;;;;;12.13;6.45;;;8.70;73.70;;;;;;5058025;28;20344;-62
2022/03/03 01:06:22;;;;;;;12.65;7.07;;;8.70;73.90;;;;;;5061506;28;20020;-62
2022/03/03 01:08:48;;;;;;;17.25;6.07;;;8.70;74.10;;;;;;5054578;28;20516;-62
2022/03/03 01:11:13;;;;;;;12.43;6.22;;;8.70;74.00;;;;;;5065506;28;20029;-62
2022/03/03 01:13:39;;;;;;;13.98;7.43;;;8.70;73.80;;;;;;5066690;28;20052;-62
2022/03/03 01:16:05;;;;;;;16.17;6.60;;;8.70;73.50;;;;;;5062200;28;20538;-62
2022/03/03 01:18:31;;;;;;;14.73;7.68;;;8.70;73.70;;;;;;5064966;28;20426;-63
2022/03/03 01:20:56;;;;;;;16.75;7.15;;;8.70;73.80;;;;;;5053915;28;20111;-63
2022/03/03 01:23:22;;;;;;;18.70;6.95;;;8.70;73.70;;;;;;5058782;28;20416;-62
2022/03/03 01:25:48;;;;;;;16.67;6.72;;;8.70;73.80;;;;;;5063790;28;20029;-63
2022/03/03 01:28:14;;;;;;;12.98;6.35;;;8.70;73.90;;;;;;5055873;28;20097;-63
2022/03/03 01:30:40;;;;;;;14.25;6.43;;;8.70;73.90;;;;;;5061822;28;20025;-62
2022/03/03 01:33:06;;;;;;;13.32;6.63;;;8.60;74.00;;;;;;5067609;28;20020;-63
2022/03/03 01:35:32;;;;;;;19.00;7.40;;;8.70;74.00;;;;;;5056668;28;20386;-62
2022/03/03 01:37:58;;;;;;;15.82;6.95;;;8.70;74.00;;;;;;5055906;28;20025;-62
2022/03/03 01:40:25;;;;;;;14.57;7.63;;;8.60;74.10;;;;;;5057410;28;20025;-62
2022/03/03 01:42:52;;;;;;;16.50;6.80;;;8.70;74.30;;;;;;5058755;28;20040;-62
2022/03/03 01:45:17;;;;;;;13.50;6.60;;;8.60;74.30;;;;;;5060663;28;20032;-63
2022/03/03 01:47:43;;;;;;;13.55;7.28;;;8.60;74.40;;;;;;5056603;28;20029;-63
2022/03/03 01:50:09;;;;;;;19.58;6.80;;;8.70;74.20;;;;;;5056914;28;20481;-63
2022/03/03 01:52:34;;;;;;;14.55;6.80;;;8.70;74.30;;;;;;5046836;28;20068;-62
2022/03/03 01:55:00;;;;;;;12.13;6.85;;;8.60;74.40;;;;;;5059824;28;20493;-62
2022/03/03 01:57:26;;;;;;;15.27;6.85;;;8.70;74.30;;;;;;5063636;28;20027;-62
2022/03/03 01:59:52;;;;;;;15.70;6.60;;;8.70;74.30;;;;;;5063829;28;20095;-62
2022/03/03 02:02:20;;;;;;;18.48;7.50;;;8.60;74.40;;;;;;5052582;28;20485;-62
2022/03/03 02:04:46;;;;;;;15.90;7.57;;;8.60;74.40;;;;;;5057720;28;20646;-63
2022/03/03 02:07:11;;;;;;;15.35;6.65;;;8.60;74.30;;;;;;5054401;28;20032;-62
2022/03/03 02:09:39;;;;;;;16.27;7.55;;;8.70;74.30;;;;;;5056464;28;20026;-62
2022/03/03 02:12:05;;;;;;;19.15;7.53;;;8.70;74.40;;;;;;5053673;28;20033;-63
2022/03/03 02:14:43;;;;;;;13.20;6.47;;;8.60;74.40;;;;;;5069752;28;20048;-62
2022/03/03 02:17:09;;;;;;;14.93;6.80;;;8.60;74.50;;;;;;5057294;28;20021;-62
2022/03/03 02:19:35;;;;;;;12.27;5.90;;;8.60;74.20;;;;;;5062948;28;20028;-63
2022/03/03 02:22:00;;;;;;;15.43;6.53;;;8.60;74.10;;;;;;5056757;28;20630;-62
2022/03/03 02:24:26;;;;;;;13.90;7.03;;;8.70;74.20;;;;;;5056992;28;20036;-63
2022/03/03 02:26:53;;;;;;;19.70;7.05;;;8.60;74.30;;;;;;5058914;28;20028;-63
2022/03/03 02:29:19;;;;;;;15.95;6.82;;;8.60;74.40;;;;;;5060129;28;20119;-62
2022/03/03 02:31:48;;;;;;;11.95;6.03;;;8.60;74.20;;;;;;5051493;28;20120;-63
2022/03/03 02:34:13;;;;;;;11.02;5.80;;;8.60;74.20;;;;;;5057964;28;20046;-63
2022/03/03 02:36:39;;;;;;;21.58;7.10;;;8.60;74.30;;;;;;5057377;28;20104;-62
2022/03/03 02:39:05;;;;;;;14.65;7.03;;;8.60;74.40;;;;;;5063291;28;20684;-63
2022/03/03 02:41:31;;;;;;;12.88;6.47;;;8.60;74.70;;;;;;5056088;28;20017;-62
2022/03/03 02:43:58;;;;;;;16.20;6.97;;;8.60;74.60;;;;;;5057845;28;20305;-62
2022/03/03 02:46:24;;;;;;;14.57;6.32;;;8.60;74.60;;;;;;5064289;28;20032;-62
2022/03/03 02:48:50;;;;;;;11.10;5.88;;;8.60;74.60;;;;;;5069055;28;20021;-63
2022/03/03 02:51:16;;;;;;;13.23;6.60;;;8.60;74.40;;;;;;5064584;28;20130;-63
2022/03/03 02:53:41;;;;;;;12.73;6.28;;;8.60;74.30;;;;;;5062562;28;20021;-63
2022/03/03 02:56:07;;;;;;;16.58;7.43;;;8.60;74.40;;;;;;5064118;28;20516;-62
2022/03/03 02:58:33;;;;;;;13.77;6.00;;;8.60;74.50;;;;;;5058615;28;20032;-62
2022/03/03 03:01:00;;;;;;;13.23;6.72;;;8.60;74.50;;;;;;5065895;28;20033;-62
2022/03/03 03:03:27;;;;;;;10.57;5.63;;;8.60;74.50;;;;;;5069987;28;20032;-62
2022/03/03 03:05:53;;;;;;;21.55;7.25;;;8.60;74.60;;;;;;5060329;28;20027;-62
2022/03/03 03:08:19;;;;;;;21.73;7.65;;;8.60;74.60;;;;;;5060737;28;20020;-63
2022/03/03 03:10:45;;;;;;;26.77;7.10;;;8.60;74.40;;;;;;5056360;28;20397;-63
2022/03/03 03:13:14;;;;;;;15.18;7.15;;;8.60;74.50;;;;;;5064419;28;20059;-63
2022/03/03 03:15:44;;;;;;;14.05;7.22;;;8.60;74.40;;;;;;5060201;28;20401;-62
2022/03/03 03:18:15;;;;;;;13.48;5.65;;;8.60;74.50;;;;;;5042839;28;20123;-62
2022/03/03 03:20:41;;;;;;;;;;;8.60;74.40;;;;;;5063133;28;20048;-62
2022/03/03 03:23:08;;;;;;;11.02;5.60;;;8.50;74.80;;;;;;5059629;28;19936;-62
2022/03/03 03:25:37;;;;;;;15.75;6.90;;;8.50;74.70;;;;;;5060168;28;20108;-63
2022/03/03 03:28:05;;;;;;;10.40;5.72;;;8.50;74.60;;;;;;5059316;28;20047;-63
2022/03/03 03:30:30;;;;;;;15.93;6.80;;;8.50;74.50;;;;;;5063954;28;20142;-63
2022/03/03 03:32:56;;;;;;;14.73;6.28;;;8.50;74.50;;;;;;5062908;28;20035;-62
2022/03/03 03:35:23;;;;;;;17.55;6.30;;;8.50;74.50;;;;;;5062980;28;20021;-62
2022/03/03 03:37:49;;;;;;;25.20;7.95;;;8.50;74.60;;;;;;5058364;28;20029;-63
2022/03/03 03:40:15;;;;;;;14.27;6.28;;;8.50;74.50;;;;;;5067055;28;20025;-63
2022/03/03 03:42:40;;;;;;;15.40;7.82;;;8.50;74.40;;;;;;5061213;28;20057;-63
2022/03/03 03:45:08;;;;;;;12.95;5.90;;;8.50;74.50;;;;;;5056360;28;20186;-63
2022/03/03 03:47:33;;;;;;;15.80;6.90;;;8.60;74.50;;;;;;5062874;28;20490;-62
2022/03/03 03:50:02;;;;;;;12.13;6.50;;;8.50;74.70;;;;;;5059200;28;20057;-62
2022/03/03 03:52:28;;;;;;;15.00;6.53;;;8.50;74.50;;;;;;5059373;28;20033;-63
2022/03/03 03:54:54;;;;;;;12.32;6.18;;;8.50;74.40;;;;;;5057145;28;20025;-62
2022/03/03 03:57:19;;;;;;;19.55;6.72;;;8.50;74.40;;;;;;5060540;28;20385;-62
2022/03/03 03:59:45;;;;;;;13.80;7.15;;;8.50;74.60;;;;;;5058199;28;20405;-63
2022/03/03 04:02:11;;;;;;;13.95;6.25;;;8.50;74.60;;;;;;5058613;28;20032;-62
2022/03/03 04:04:37;;;;;;;17.67;7.20;;;8.50;74.70;;;;;;5063137;28;20111;-63
2022/03/03 04:07:02;;;;;;;19.02;7.55;;;8.50;74.60;;;;;;5059689;28;20104;-62
2022/03/03 04:09:28;;;;;;;14.13;6.45;;;8.50;74.60;;;;;;5065202;28;20106;-62
2022/03/03 04:11:54;;;;;;;12.65;6.85;;;8.50;74.60;;;;;;5060411;28;20020;-62
2022/03/03 04:14:19;;;;;;;13.48;5.82;;;8.50;74.60;;;;;;5059709;28;20059;-63
2022/03/03 04:16:45;;;;;;;16.17;6.40;;;8.50;74.60;;;;;;5051798;28;20017;-63
2022/03/03 04:19:11;;;;;;;20.95;7.10;;;8.50;74.60;;;;;;5061804;28;20024;-63
2022/03/03 04:21:36;;;;;;;14.93;7.20;;;8.50;74.70;;;;;;5065891;28;20043;-62
2022/03/03 04:24:02;;;;;;;14.65;7.25;;;8.50;74.70;;;;;;5061884;28;20617;-63
2022/03/03 04:26:28;;;;;;;15.32;6.15;;;8.50;74.60;;;;;;5055132;28;20028;-63
2022/03/03 04:28:54;;;;;;;14.07;7.47;;;8.50;74.50;;;;;;5060630;28;20032;-63
2022/03/03 04:31:20;;;;;;;13.35;6.55;;;8.50;74.40;;;;;;5056499;28;20101;-62
2022/03/03 04:33:46;;;;;;;16.23;7.00;;;8.50;74.60;;;;;;5063840;28;20024;-63
2022/03/03 04:36:12;;;;;;;13.57;6.93;;;8.50;74.50;;;;;;5068608;28;20028;-62
2022/03/03 04:38:37;;;;;;;20.23;7.15;;;8.50;74.50;;;;;;5066526;28;20036;-62
2022/03/03 04:41:03;;;;;;;16.75;7.20;;;8.50;74.60;;;;;;5065454;28;20025;-63
2022/03/03 04:43:29;;;;;;;19.08;7.25;;;8.50;74.70;;;;;;5055855;28;20041;-63
2022/03/03 04:45:54;;;;;;;10.52;6.05;;;8.40;74.60;;;;;;5062137;28;20469;-62
2022/03/03 04:48:21;;;;;;;15.35;7.15;;;8.50;74.50;;;;;;5058205;28;20028;-63
2022/03/03 04:50:47;;;;;;;15.77;7.57;;;8.40;74.50;;;;;;5061566;28;20025;-63
2022/03/03 04:53:13;;;;;;;16.13;6.65;;;8.40;74.60;;;;;;5057171;28;20032;-62
2022/03/03 04:55:40;;;;;;;17.05;7.47;;;8.50;75.40;;;;;;5057652;28;20036;-63
2022/03/03 04:58:05;;;;;;;15.02;7.22;;;8.40;74.50;;;;;;5049594;28;20481;-63
2022/03/03 05:00:31;;;;;;;13.77;6.43;;;8.40;74.50;;;;;;5057692;28;20036;-63
2022/03/03 05:02:57;;;;;;;16.13;7.22;;;8.40;74.60;;;;;;5050560;28;20093;-63
2022/03/03 05:05:22;;;;;;;17.25;7.22;;;8.40;74.50;;;;;;5050956;28;20020;-63
2022/03/03 05:07:48;;;;;;;14.60;6.82;;;8.40;74.50;;;;;;5053707;28;20477;-62
2022/03/03 05:10:13;;;;;;;16.05;7.10;;;8.40;74.60;;;;;;5057020;28;20032;-63
2022/03/03 05:12:39;;;;;;;15.38;7.72;;;8.40;74.50;;;;;;5061441;28;20520;-63
2022/03/03 05:15:05;;;;;;;16.95;7.32;;;8.40;74.70;;;;;;5059564;28;20066;-63
2022/03/03 05:17:31;;;;;;;16.17;7.07;;;8.40;74.60;;;;;;5061488;28;20036;-63
2022/03/03 05:19:57;;;;;;;14.30;6.85;;;8.40;74.50;;;;;;5065972;28;20370;-63
2022/03/03 05:22:22;;;;;;;16.38;7.32;;;8.40;74.60;;;;;;5063079;28;20366;-63
2022/03/03 05:24:51;;;;;;;10.40;6.47;;;8.40;74.40;;;;;;5060122;28;20108;-64
2022/03/03 05:27:16;;;;;;;15.55;7.10;;;8.40;74.50;;;;;;5059933;28;20040;-63
2022/03/03 05:29:42;;;;;;;13.98;6.82;;;8.40;74.50;;;;;;5053610;28;20092;-63
2022/03/03 05:32:08;;;;;;;16.38;7.00;;;8.40;74.50;;;;;;5058522;28;20032;-63
2022/03/03 05:34:33;;;;;;;13.02;5.95;;;8.40;74.60;;;;;;5054253;28;20017;-63
2022/03/03 05:37:00;;;;;;;19.00;6.97;;;8.40;74.70;;;;;;5060960;28;20031;-63
2022/03/03 05:39:28;;;;;;;11.20;6.25;;;8.40;74.50;;;;;;5055272;28;20066;-63
2022/03/03 05:41:54;;;;;;;12.50;6.35;;;8.40;74.40;;;;;;5064088;28;20025;-64
2022/03/03 05:44:20;;;;;;;16.48;7.40;;;8.40;74.40;;;;;;5062406;28;20401;-63
2022/03/03 05:46:47;;;;;;;14.15;6.90;;;8.40;74.60;;;;;;5060931;28;20043;-63
2022/03/03 05:49:13;;;;;;;14.10;7.30;;;8.40;74.60;;;;;;5053690;28;20250;-63
2022/03/03 05:51:42;;;;;;;14.27;7.32;;;8.40;74.40;;;;;;5053150;28;20025;-63
2022/03/03 05:54:08;;;;;;;14.55;6.72;;;8.40;74.40;;;;;;5058683;28;20616;-64
2022/03/03 05:56:48;;;;;;;15.00;7.20;;;8.40;74.50;;;;;;5044628;28;20493;-63
2022/03/03 05:59:24;;;;;;;18.05;6.22;;;8.40;74.50;;;;;;5064216;28;20047;-63
2022/03/03 06:01:59;;;;;;;12.98;6.55;;;8.40;74.50;;;;;;5066392;28;20086;-63
2022/03/03 06:04:32;;;;;;;16.35;7.63;;;8.40;74.30;;;;;;5056769;28;20041;-64
2022/03/03 06:07:09;;;;;;;16.38;7.25;;;8.40;74.80;;;;;;5048807;28;20040;-64
2022/03/03 06:09:36;;;;;;;14.23;7.00;;;8.40;74.50;;;;;;5051098;28;20024;-63
2022/03/03 06:12:26;;;;;;;16.73;7.35;;;8.40;74.50;;;;;;5053083;28;20128;-63
2022/03/03 06:14:57;;;;;;;13.20;6.93;;;8.40;74.70;;;;;;5057588;28;20056;-63
2022/03/03 06:17:29;;;;;;;22.85;8.30;;;8.40;74.60;;;;;;5051603;28;20124;-63
2022/03/03 06:19:58;;;;;;;16.80;7.80;;;8.40;74.50;;;;;;5057916;28;20256;-64
2022/03/03 06:22:27;;;;;;;15.68;6.28;;;8.40;74.60;;;;;;5044609;28;20083;-63
2022/03/03 06:24:53;;;;;;;12.88;6.47;;;8.50;74.20;;;;;;5061758;28;20032;-63
2022/03/03 06:27:19;;;;;;;13.25;6.10;;;8.40;73.90;;;;;;5054271;28;20750;-59
2022/03/03 06:29:45;;;;;;;20.02;6.85;;;8.30;73.80;;;;;;5054012;28;20033;-61
2022/03/03 06:32:12;;;;;;;21.13;7.95;;;8.20;73.30;;;;;;5048807;28;20056;-60
2022/03/03 06:34:38;;;;;;;13.52;6.40;;;8.20;73.20;;;;;;5059919;28;20028;-60
2022/03/03 06:37:05;;;;;;;14.60;6.65;;;8.20;72.90;;;;;;5056828;28;20032;-60
2022/03/03 06:39:31;;;;;;;18.98;7.57;;;8.20;72.70;;;;;;5056406;28;20115;-61
2022/03/03 06:42:00;;;;;;;17.55;8.15;;;8.10;71.90;;;;;;5058266;28;20120;-61
2022/03/03 06:44:25;;;;;;;10.85;6.15;;;8.10;71.40;;;;;;5054890;28;20041;-61
2022/03/03 06:46:51;;;;;;;15.07;7.38;;;8.10;70.50;;;;;;5057004;28;20151;-62
2022/03/03 06:49:17;;;;;;;15.35;6.18;;;8.10;70.00;;;;;;5050816;28;20021;-62
2022/03/03 06:51:47;;;;;;;10.90;5.53;;;8.10;69.10;;;;;;5066577;28;20493;-64
2022/03/03 06:54:14;;;;;;;;;;;8.10;68.50;;;;;;5060832;28;20079;-61
2022/03/03 06:56:52;;;;;;;11.35;5.68;;;8.10;67.60;;;;;;5075372;28;19904;-62
2022/03/03 06:59:21;;;;;;;12.90;6.43;;;8.10;68.10;;;;;;5061347;28;20035;-61
2022/03/03 07:01:48;;;;;;;19.13;6.22;;;8.00;68.70;;;;;;5056642;28;20035;-61
2022/03/03 07:04:15;;;;;;;16.15;7.57;;;8.00;68.00;;;;;;5057067;28;20086;-61
2022/03/03 07:06:42;;;;;;;14.10;7.25;;;8.00;67.80;;;;;;5055492;28;20032;-61
2022/03/03 07:09:09;;;;;;;18.40;8.55;;;8.00;67.70;;;;;;5052912;28;20040;-60
2022/03/03 07:11:37;;;;;;;14.43;6.38;;;8.00;67.40;;;;;;5064711;28;20032;-61
2022/03/03 07:14:02;;;;;;;14.00;6.45;;;8.00;67.50;;;;;;5059333;28;20047;-62
2022/03/03 07:17:06;;;;;;;18.08;7.32;;;8.00;67.60;;;;;;5066468;28;20501;-62
2022/03/03 07:19:38;;;;;;;20.58;8.18;;;8.00;67.50;;;;;;5044492;28;20049;-61
2022/03/03 07:22:25;;;;;;;18.63;7.20;;;8.00;67.60;;;;;;5029912;28;20049;-62
2022/03/03 07:25:11;;;;;;;20.13;6.30;;;8.10;67.40;;;;;;5046065;28;20037;-61
2022/03/03 07:27:43;;;;;;;13.18;5.78;;;8.10;67.50;;;;;;5030877;28;20041;-61
2022/03/03 07:30:15;;;;;;;14.93;6.55;;;8.10;67.80;;;;;;5028744;28;20029;-62
2022/03/03 07:33:05;;;;;;;9.65;5.20;;;8.10;67.50;;;;;;5032990;28;20553;-61
2022/03/03 07:35:33;;;;;;;16.42;6.78;;;8.10;67.50;;;;;;5029145;28;20526;-60
2022/03/03 07:38:14;;;;;;;12.73;6.35;;;8.20;67.70;;;;;;5032487;28;20029;-61
2022/03/03 07:40:42;;;;;;;17.17;6.85;;;8.30;67.30;;;;;;5027113;28;20044;-62
2022/03/03 07:43:12;;;;;;;18.33;7.50;;;8.30;67.30;;;;;;5032112;28;20176;-62
2022/03/03 07:45:38;;;;;;;23.95;8.65;;;8.30;67.10;;;;;;5031335;28;20145;-61
2022/03/03 07:48:04;;;;;;;15.90;7.10;;;8.40;67.20;;;;;;5032900;28;20115;-61
2022/03/03 07:50:30;;;;;;;21.13;9.05;;;8.40;67.40;;;;;;5028416;28;20099;-61
2022/03/03 07:52:56;;;;;;;27.40;11.20;;;8.40;67.40;;;;;;5028750;28;20429;-61
2022/03/03 07:55:23;;;;;;;21.20;9.90;;;8.40;67.20;;;;;;5047022;28;20020;-62
2022/03/03 07:57:58;;;;;;;21.15;9.60;;;8.40;67.20;;;;;;5067434;28;20198;-62
2022/03/03 08:00:27;;;;;;;22.67;9.55;;;8.50;67.10;;;;;;5061524;28;20326;-61
2022/03/03 08:02:53;;;;;;;20.13;10.73;;;8.50;67.10;;;;;;5054792;28;20505;-62
2022/03/03 08:05:21;;;;;;;16.15;7.13;;;8.60;66.90;;;;;;5056707;28;20032;-62
2022/03/03 08:07:48;;;;;;;27.17;11.05;;;8.60;66.60;;;;;;5049764;28;20033;-60
2022/03/03 08:10:15;;;;;;;26.25;11.02;;;8.60;67.30;;;;;;5058093;28;20100;-61
2022/03/03 08:12:42;;;;;;;24.17;11.88;;;8.60;67.10;;;;;;5058278;28;20127;-61
2022/03/03 08:15:10;;;;;;;26.20;11.77;;;8.60;66.90;;;;;;5055267;28;20061;-61
2022/03/03 08:17:36;;;;;;;26.73;13.73;;;8.70;67.70;;;;;;5065223;28;20028;-61
2022/03/03 08:20:05;;;;;;;27.17;11.82;;;8.70;67.70;;;;;;5061237;28;20028;-61
2022/03/03 08:22:32;;;;;;;32.38;11.77;;;8.80;67.30;;;;;;5058322;28;20029;-62
2022/03/03 08:24:58;;;;;;;28.75;13.80;;;8.80;66.50;;;;;;5058704;28;20037;-60
2022/03/03 08:27:25;;;;;;;38.83;15.52;;;8.80;68.00;;;;;;5063493;28;20032;-61
2022/03/03 08:29:53;;;;;;;25.05;14.23;;;8.80;67.00;;;;;;5056572;28;20099;-62
2022/03/03 08:32:20;;;;;;;40.10;14.85;;;8.80;68.10;;;;;;5059038;28;20016;-62
2022/03/03 08:35:07;;;;;;;31.15;15.75;;;8.80;68.70;;;;;;5058546;28;20148;-62
2022/03/03 08:37:43;;;;;;;25.42;13.52;;;8.80;70.00;;;;;;5061023;28;20032;-62
2022/03/03 08:40:14;;;;;;;32.53;13.73;;;8.90;69.90;;;;;;5060750;28;20489;-62
2022/03/03 08:42:48;;;;;;;31.67;14.98;;;8.90;70.90;;;;;;5062687;28;20115;-62
2022/03/03 08:45:18;;;;;;;39.30;13.90;;;9.00;72.20;;;;;;5062993;28;20477;-61
2022/03/03 08:47:44;;;;;;;28.98;11.90;;;9.00;70.20;;;;;;5059246;28;20027;-61
2022/03/03 08:50:13;;;;;;;19.33;8.80;;;9.00;69.50;;;;;;5061738;28;20142;-61
2022/03/03 08:52:41;;;;;;;10.48;6.60;;;9.00;68.70;;;;;;5054037;28;20082;-62
2022/03/03 08:55:10;;;;;;;23.00;9.43;;;8.90;68.00;;;;;;5058349;28;20016;-61
2022/03/03 08:57:39;;;;;;;17.05;6.95;;;8.90;68.50;;;;;;5059239;28;20528;-61
2022/03/03 09:00:07;;;;;;;24.27;10.23;;;8.90;68.60;;;;;;5059995;28;20104;-61
2022/03/03 09:02:33;;;;;;;21.58;9.32;;;8.90;68.50;;;;;;5061037;28;20060;-62
2022/03/03 09:04:58;;;;;;;27.77;11.05;;;8.90;68.60;;;;;;5061681;28;20502;-60
2022/03/03 09:07:24;;;;;;;17.30;7.25;;;8.90;69.10;;;;;;5058740;28;20047;-61
2022/03/03 09:09:50;;;;;;;12.27;5.75;;;8.90;67.10;;;;;;5061209;28;20100;-61
2022/03/03 09:12:15;;;;;;;18.50;10.00;;;8.90;68.40;;;;;;5057517;28;20424;-62
2022/03/03 09:14:41;;;;;;;23.50;6.82;;;8.90;68.00;;;;;;5061289;28;20036;-63
2022/03/03 09:17:07;;;;;;;19.08;7.85;;;9.00;68.10;;;;;;5059392;28;20104;-62
2022/03/03 09:19:32;;;;;;;20.50;9.82;;;9.00;67.20;;;;;;5057650;28;20021;-61
2022/03/03 09:21:58;;;;;;;19.10;8.40;;;9.00;67.90;;;;;;5056823;28;20029;-62
2022/03/03 09:24:24;;;;;;;13.55;6.07;;;9.10;67.50;;;;;;5057258;28;20037;-62
2022/03/03 09:26:54;;;;;;;29.20;13.23;;;9.10;68.80;;;;;;5058335;28;20031;-62
2022/03/03 09:29:20;;;;;;;;;;;9.10;68.30;;;;;;5060306;28;20229;-61
2022/03/03 09:34:35;;;;;;;22.92;8.98;;;9.10;67.60;;;;;;5072656;23;20052;-66
2022/03/03 09:37:01;;;;;;;26.75;8.18;;;9.20;68.10;;;;;;5048887;28;20033;-65
2022/03/03 09:39:27;;;;;;;29.88;13.70;;;9.20;68.80;;;;;;5049174;28;20025;-66
2022/03/03 09:41:53;;;;;;;22.45;7.10;;;9.20;69.10;;;;;;5048641;28;20393;-66
2022/03/03 09:44:23;;;;;;;24.17;13.15;;;9.20;69.00;;;;;;5049499;28;20477;-65
2022/03/03 09:46:49;;;;;;;;;;;9.20;67.80;;;;;;5050076;28;20064;-66
2022/03/03 09:49:14;;;;;;;41.33;17.35;;;9.30;67.60;;;;;;5063162;28;19957;-66
2022/03/03 09:51:40;;;;;;;32.42;15.80;;;9.30;69.10;;;;;;5068796;28;20124;-66
2022/03/03 09:54:06;;;;;;;35.22;14.55;;;9.40;67.40;;;;;;5069180;28;20032;-65
2022/03/03 09:56:32;;;;;;;24.00;10.70;;;9.50;68.10;;;;;;5069417;28;20025;-66
2022/03/03 09:58:58;;;;;;;24.67;10.98;;;9.50;69.40;;;;;;5066150;28;20051;-66
2022/03/03 10:01:32;;;;;;;28.77;8.30;;;9.50;69.30;;;;;;5049287;28;20021;-66
2022/03/03 10:04:12;;;;;;;45.55;16.10;;;9.50;67.30;;;;;;5048804;28;20032;-65
2022/03/03 10:06:44;;;;;;;33.92;15.07;;;9.50;67.20;;;;;;5048734;28;20028;-66
2022/03/03 10:09:10;;;;;;;28.50;13.40;;;9.60;67.90;;;;;;5049287;28;20496;-66
2022/03/03 10:11:57;;;;;;;32.42;13.25;;;9.70;68.70;;;;;;5048782;28;20033;-65
2022/03/03 10:14:37;;;;;;;33.25;11.95;;;9.70;67.80;;;;;;5047739;28;20119;-66
2022/03/03 10:17:04;;;;;;;33.67;13.80;;;9.70;67.80;;;;;;5048309;28;20024;-66
2022/03/03 10:19:30;;;;;;;32.28;14.38;;;9.70;67.10;;;;;;5060023;28;20064;-66
2022/03/03 10:21:56;;;;;;;13.90;7.10;;;9.80;66.80;;;;;;5048543;28;20066;-65
2022/03/03 10:24:29;;;;;;;22.45;8.32;;;9.80;67.60;;;;;;5048916;28;20025;-66
2022/03/03 10:27:00;;;;;;;6.03;2.92;;;9.70;66.90;;;;;;5050935;28;20616;-66
2022/03/03 10:29:26;;;;;;;33.92;15.32;;;9.80;67.50;;;;;;5030857;28;20512;-66
2022/03/03 10:31:53;;;;;;;17.45;7.07;;;9.80;67.50;;;;;;5030456;28;20363;-66
2022/03/03 10:34:30;;;;;;;20.67;9.30;;;9.90;67.80;;;;;;5052942;28;20390;-66
2022/03/03 10:36:58;;;;;;;23.00;11.90;;;9.90;68.00;;;;;;5049082;28;20029;-66
2022/03/03 10:39:24;;;;;;;32.10;11.98;;;10.00;67.60;;;;;;5047770;28;20040;-67
2022/03/03 10:41:55;;;;;;;31.42;13.30;;;10.00;68.00;;;;;;5048975;28;20021;-67
2022/03/03 10:44:28;;;;;;;;;;;10.10;69.30;;;;;;5049277;28;20033;-66
2022/03/03 10:47:09;;;;;;;22.40;7.25;;;10.20;68.60;;;;;;5048737;28;19913;-66
2022/03/03 10:49:40;;;;;;;22.40;9.65;;;10.30;69.80;;;;;;5062375;28;20056;-66
2022/03/03 10:52:20;;;;;;;27.25;12.63;;;10.30;70.70;;;;;;5068787;28;20020;-67
2022/03/03 10:54:55;;;;;;;27.30;14.07;;;10.40;70.80;;;;;;5068829;28;20039;-67
2022/03/03 10:57:56;;;;;;;27.27;10.90;;;10.50;69.60;;;;;;5069477;28;20554;-67
2022/03/03 11:00:25;;;;;;;;;;;10.60;69.20;;;;;;5039865;28;20036;-68
2022/03/03 11:02:59;;;;;;;21.02;10.68;;;10.60;69.70;;;;;;5052218;28;19909;-67
2022/03/03 11:05:28;;;;;;;28.05;11.65;;;10.70;68.20;;;;;;5071641;28;20040;-67
2022/03/03 11:07:55;;;;;;;28.42;11.55;;;10.80;69.40;;;;;;5072400;28;20024;-67
2022/03/03 11:10:24;;;;;;;25.38;11.68;;;10.80;68.70;;;;;;5072701;28;20093;-66
2022/03/03 11:12:50;;;;;;;21.33;10.02;;;10.90;68.50;;;;;;5067977;28;20819;-66
2022/03/03 11:15:19;;;;;;;21.95;11.05;;;10.90;69.10;;;;;;5055271;28;20028;-66
2022/03/03 11:17:46;;;;;;;19.05;9.75;;;10.90;69.50;;;;;;5052660;28;20025;-66
2022/03/03 11:20:15;;;;;;;23.85;10.38;;;10.90;68.70;;;;;;5041971;28;20415;-67
2022/03/03 11:22:42;;;;;;;22.20;9.98;;;10.90;67.00;;;;;;5043912;28;20539;-66
2022/03/03 11:25:12;;;;;;;20.42;8.98;;;10.90;65.70;;;;;;5052241;28;20128;-66
2022/03/03 11:27:40;;;;;;;17.00;7.57;;;11.00;69.10;;;;;;5052536;28;20386;-67
2022/03/03 11:30:24;;;;;;;12.48;7.90;;;11.00;67.10;;;;;;5051370;28;20159;-67
2022/03/03 11:33:24;;;;;;;20.15;10.32;;;11.10;66.10;;;;;;5051747;28;20033;-67
2022/03/03 11:35:59;;;;;;;12.02;5.70;;;11.20;67.90;;;;;;5047544;28;20030;-65
2022/03/03 11:38:27;;;;;;;22.48;9.68;;;11.20;66.30;;;;;;5032280;28;20034;-66
2022/03/03 11:41:05;;;;;;;18.95;9.85;;;11.20;68.30;;;;;;5014511;28;20022;-66
2022/03/03 11:43:58;;;;;;;17.58;9.32;;;11.30;66.90;;;;;;5031751;28;20107;-66
2022/03/03 11:46:47;;;;;;;18.55;6.18;;;11.30;68.00;;;;;;5031698;28;20056;-67
2022/03/03 11:49:17;;;;;;;22.55;9.10;;;11.30;67.10;;;;;;5046982;28;20036;-67
2022/03/03 11:51:42;;;;;;;22.88;11.68;;;11.30;65.50;;;;;;5052056;28;20025;-67
2022/03/03 11:54:12;;;;;;;26.80;12.57;;;11.30;68.20;;;;;;5054145;28;20112;-67
2022/03/03 11:57:11;;;;;;;24.55;10.65;;;11.30;69.10;;;;;;5054399;28;20029;-67
2022/03/03 11:59:45;;;;;;;24.40;10.03;;;11.30;69.40;;;;;;5051951;28;20052;-67
2022/03/03 12:02:15;;;;;;;20.63;10.25;;;11.40;68.60;;;;;;5051194;28;20070;-67
2022/03/03 12:04:42;;;;;;;12.77;5.65;;;11.40;68.80;;;;;;5059736;28;20416;-67
2022/03/03 12:07:27;;;;;;;6.30;2.97;;;11.40;68.80;;;;;;5052978;28;20040;-65
2022/03/03 12:09:52;;;;;;;19.27;8.90;;;11.50;66.20;;;;;;5051274;28;20470;-66
2022/03/03 12:12:20;;;;;;;17.83;8.07;;;11.50;68.70;;;;;;5050545;28;20104;-66
2022/03/03 12:14:53;;;;;;;25.40;10.15;;;11.50;67.90;;;;;;5051015;28;20437;-67
2022/03/03 12:17:46;;;;;;;18.55;7.18;;;11.50;68.70;;;;;;5051702;28;20051;-67
2022/03/03 12:20:40;;;;;;;19.45;9.52;;;11.50;66.70;;;;;;5053834;28;20036;-66
2022/03/03 12:23:35;;;;;;;18.50;9.68;;;11.50;68.30;;;;;;5049669;28;20120;-66
2022/03/03 12:26:02;;;;;;;19.75;9.02;;;11.50;68.30;;;;;;5048731;28;20136;-67
2022/03/03 12:28:34;;;;;;;22.48;9.60;;;11.50;68.50;;;;;;5050630;28;20025;-66
2022/03/03 12:31:01;;;;;;;21.15;9.90;;;11.60;64.00;;;;;;5050646;28;20047;-67
2022/03/03 12:33:31;;;;;;;26.33;9.57;;;11.50;67.40;;;;;;5050272;28;20058;-67
2022/03/03 12:36:03;;;;;;;17.52;9.13;;;11.60;68.50;;;;;;5067646;28;20028;-66
2022/03/03 12:38:29;;;;;;;19.65;10.18;;;11.60;68.60;;;;;;5071060;28;20103;-67
2022/03/03 12:40:56;;;;;;;21.40;8.15;;;11.60;68.60;;;;;;5070575;28;20442;-67
2022/03/03 12:43:21;;;;;;;25.23;10.00;;;11.60;68.30;;;;;;5070660;28;20021;-67
2022/03/03 12:45:48;;;;;;;15.35;8.27;;;11.60;68.60;;;;;;5071162;28;20031;-67
2022/03/03 12:48:27;;;;;;;13.15;7.15;;;11.70;68.80;;;;;;5071195;28;20024;-66
2022/03/03 12:51:04;;;;;;;17.75;8.32;;;11.70;68.50;;;;;;5053399;28;20029;-66
2022/03/03 12:53:39;;;;;;;19.45;8.07;;;11.70;68.60;;;;;;5033172;28;20103;-67
2022/03/03 12:56:06;;;;;;;18.42;8.68;;;11.60;68.40;;;;;;5050718;28;20025;-67
2022/03/03 12:58:34;;;;;;;26.92;10.25;;;11.60;68.60;;;;;;5031725;28;20314;-67